Time;durP1;ratioP1;P1;durP2;ratioP2;P2;SDS_P1;SDS_P2;PMS_P1;PMS_P2;Temp;Humidity;BMP_temperature;BMP_pressure;BME280_temperature;BME280_humidity;BME280_pressure;Samples;Min_cycle;Max_cycle;Signal;HPM_P1;HPM_P2
2023/08/24 00:01:36;;;;;;;4.85;2.85;;;;;;;18.13;80.16;101702.97;5056466;28;20502;-85
2023/08/24 00:04:01;;;;;;;6.45;3.00;;;;;;;18.12;79.77;101694.25;5057634;28;20116;-85
2023/08/24 00:06:27;;;;;;;4.68;2.55;;;;;;;18.13;79.73;101692.44;5057249;28;20028;-85
2023/08/24 00:08:52;;;;;;;5.35;2.78;;;;;;;18.12;79.30;101688.97;5065335;28;20498;-85
2023/08/24 00:11:18;;;;;;;4.40;2.65;;;;;;;18.07;80.15;101688.31;5049465;28;20025;-85
2023/08/24 00:13:49;;;;;;;5.60;2.72;;;;;;;18.06;80.17;101694.50;5057778;28;20032;-85
2023/08/24 00:16:15;;;;;;;;;;;;;;;18.14;76.57;101692.41;5053371;28;20031;-85
2023/08/24 00:18:40;;;;;;;3.42;2.40;;;;;;;18.08;80.26;101687.41;5053979;28;20352;-85
2023/08/24 00:21:07;;;;;;;4.22;2.78;;;;;;;18.05;80.42;101680.50;5059380;28;20040;-85
2023/08/24 00:23:33;;;;;;;4.13;2.85;;;;;;;18.06;80.61;101683.97;5050398;28;20037;-85
2023/08/24 00:25:59;;;;;;;4.90;2.95;;;;;;;18.08;80.57;101691.81;5055019;28;20532;-85
2023/08/24 00:28:25;;;;;;;4.90;2.95;;;;;;;18.05;80.80;101696.28;5055462;28;20030;-85
2023/08/24 00:30:51;;;;;;;5.15;3.10;;;;;;;18.05;80.93;101698.94;5056777;28;20040;-85
2023/08/24 00:33:16;;;;;;;4.95;2.75;;;;;;;18.05;79.72;101698.06;5058641;28;20016;-85
2023/08/24 00:35:41;;;;;;;4.50;2.90;;;;;;;18.02;79.58;101692.91;5054024;28;20499;-85
2023/08/24 00:38:07;;;;;;;4.85;3.05;;;;;;;17.97;80.40;101685.19;5058186;28;20029;-83
2023/08/24 00:40:32;;;;;;;5.97;3.00;;;;;;;17.89;80.70;101682.91;5064996;28;20114;-85
2023/08/24 00:42:57;;;;;;;7.18;3.03;;;;;;;17.86;80.82;101682.19;5054190;28;20025;-85
2023/08/24 00:45:23;;;;;;;5.55;2.97;;;;;;;17.84;80.24;101684.88;5051190;28;20108;-85
2023/08/24 00:47:48;;;;;;;5.00;3.10;;;;;;;17.76;80.95;101689.63;5055820;28;20028;-85
2023/08/24 00:50:16;;;;;;;4.15;3.10;;;;;;;17.75;81.59;101690.53;5056225;28;20029;-85
2023/08/24 00:52:42;;;;;;;4.38;2.90;;;;;;;17.77;81.33;101687.81;5052678;28;20056;-85
2023/08/24 00:55:08;;;;;;;3.97;3.15;;;;;;;17.74;80.19;101684.44;5056944;28;20032;-85
2023/08/24 00:57:35;;;;;;;5.53;3.33;;;;;;;17.72;80.93;101686.25;5056837;28;20044;-85
2023/08/24 01:00:05;;;;;;;5.03;3.58;;;;;;;17.68;81.12;101673.28;5059351;28;20071;-85
2023/08/24 01:02:31;;;;;;;4.50;3.47;;;;;;;17.65;81.67;101669.00;5054318;28;20029;-85
2023/08/24 01:04:56;;;;;;;5.10;3.53;;;;;;;17.62;81.71;101665.66;5052437;28;20086;-85
2023/08/24 01:07:22;;;;;;;5.18;3.60;;;;;;;17.54;82.26;101666.81;5047152;28;20071;-85
2023/08/24 01:09:47;;;;;;;3.92;2.88;;;;;;;17.54;82.17;101676.50;5049430;28;20090;-85
2023/08/24 01:12:33;;;;;;;4.63;3.50;;;;;;;17.53;80.38;101674.81;5052162;28;20021;-85
2023/08/24 01:15:12;;;;;;;6.18;3.42;;;;;;;17.50;81.04;101677.56;5052136;28;20392;-85
2023/08/24 01:17:40;;;;;;;5.82;3.38;;;;;;;17.45;82.39;101669.84;5050561;28;20029;-85
2023/08/24 01:20:06;;;;;;;4.63;3.40;;;;;;;17.43;82.29;101659.38;5051842;28;20107;-85
2023/08/24 01:22:43;;;;;;;5.68;3.40;;;;;;;17.41;82.12;101658.63;5049038;28;20029;-85
2023/08/24 01:25:40;;;;;;;4.88;3.28;;;;;;;17.43;80.44;101662.00;5058668;28;20032;-85
2023/08/24 01:28:06;;;;;;;4.97;3.28;;;;;;;17.41;82.66;101666.50;5048711;28;20041;-85
2023/08/24 01:30:35;;;;;;;5.28;3.10;;;;;;;17.39;83.66;101673.59;5051771;28;20112;-85
2023/08/24 01:33:02;;;;;;;5.15;3.50;;;;;;;17.40;83.97;101669.19;5049885;28;20056;-85
2023/08/24 01:35:28;;;;;;;4.53;3.35;;;;;;;17.43;82.87;101664.63;5067064;28;20111;-85
2023/08/24 01:37:53;;;;;;;5.97;3.72;;;;;;;17.43;82.99;101643.59;5050058;28;20494;-85
2023/08/24 01:40:46;;;;;;;5.95;3.80;;;;;;;17.43;81.36;101643.59;5051340;28;20090;-85
2023/08/24 01:43:13;;;;;;;5.30;3.65;;;;;;;17.43;83.57;101645.38;5051832;28;20029;-85
2023/08/24 01:45:41;;;;;;;4.85;3.50;;;;;;;17.40;83.64;101654.28;5051429;28;20469;-85
2023/08/24 01:48:07;;;;;;;5.90;3.58;;;;;;;17.39;84.31;101649.94;5051381;28;20032;-85
2023/08/24 01:50:33;;;;;;;4.90;3.38;;;;;;;17.38;84.82;101648.22;5050879;28;20028;-85
2023/08/24 01:52:59;;;;;;;5.93;3.67;;;;;;;17.40;84.71;101649.00;5052758;28;20074;-85
2023/08/24 01:55:24;;;;;;;6.30;3.45;;;;;;;17.43;84.99;101661.16;5053996;28;20033;-85
2023/08/24 01:57:49;;;;;;;4.30;3.28;;;;;;;17.46;84.78;101658.41;5053543;28;20049;-85
2023/08/24 02:00:15;;;;;;;5.45;3.10;;;;;;;17.51;84.72;101656.44;5047046;28;20040;-85
2023/08/24 02:02:44;;;;;;;5.03;3.50;;;;;;;17.52;84.67;101662.56;5050689;28;20555;-85
2023/08/24 02:05:09;;;;;;;6.38;3.25;;;;;;;17.51;84.46;101655.59;5050392;28;20410;-85
2023/08/24 02:07:35;;;;;;;8.25;3.72;;;;;;;17.51;85.25;101661.69;5050063;28;20489;-85
2023/08/24 02:10:01;;;;;;;4.95;3.00;;;;;;;17.53;85.72;101664.28;5042848;28;20120;-85
2023/08/24 02:12:26;;;;;;;6.00;3.22;;;;;;;17.54;85.24;101676.50;5052375;28;20124;-85
2023/08/24 02:14:51;;;;;;;4.97;3.40;;;;;;;17.56;85.64;101669.41;5053549;28;20051;-85
2023/08/24 02:17:16;;;;;;;5.85;3.22;;;;;;;17.57;85.70;101664.06;5040314;28;20083;-85
2023/08/24 02:19:42;;;;;;;5.28;3.42;;;;;;;17.58;84.96;101662.31;5046667;28;20108;-85
2023/08/24 02:22:08;;;;;;;4.85;3.22;;;;;;;17.57;84.69;101655.34;5056509;28;20033;-85
2023/08/24 02:24:33;;;;;;;6.15;3.75;;;;;;;17.56;84.52;101637.84;5056122;28;20052;-85
2023/08/24 02:26:59;;;;;;;6.03;3.50;;;;;;;17.56;84.76;101628.16;5056543;28;20047;-85
2023/08/24 02:29:24;;;;;;;5.43;3.50;;;;;;;17.56;85.38;101641.31;5047042;28;20522;-85
2023/08/24 02:31:50;;;;;;;6.53;3.55;;;;;;;17.54;85.85;101661.56;5056782;28;20021;-85
2023/08/24 02:34:16;;;;;;;4.55;3.42;;;;;;;17.50;86.04;101649.50;5050997;28;20048;-85
2023/08/24 02:36:41;;;;;;;5.18;3.20;;;;;;;17.50;86.40;101648.63;5056416;28;20068;-85
2023/08/24 02:39:07;;;;;;;6.40;3.58;;;;;;;17.51;86.29;101645.06;5048482;28;20029;-85
2023/08/24 02:41:33;;;;;;;5.28;3.28;;;;;;;17.53;86.23;101645.84;5051582;28;20043;-85
2023/08/24 02:43:58;;;;;;;6.72;3.38;;;;;;;17.52;86.96;101654.66;5058698;28;20060;-85
2023/08/24 02:46:24;;;;;;;5.82;3.55;;;;;;;17.54;87.05;101650.19;5045162;28;20453;-85
2023/08/24 02:48:49;;;;;;;5.40;3.67;;;;;;;17.58;87.17;101641.25;5053023;28;20033;-85
2023/08/24 02:51:14;;;;;;;6.47;3.78;;;;;;;17.60;85.42;101626.25;5049884;28;20536;-85
2023/08/24 02:53:39;;;;;;;5.15;3.80;;;;;;;17.62;85.92;101615.66;5044262;28;20017;-85
2023/08/24 02:56:05;;;;;;;4.32;3.42;;;;;;;17.61;86.21;101604.28;5051322;28;20061;-85
2023/08/24 02:58:30;;;;;;;5.63;3.70;;;;;;;17.63;86.60;101591.06;5050038;28;20028;-85
2023/08/24 03:00:56;;;;;;;6.05;4.10;;;;;;;17.64;86.61;101598.03;5049674;28;20119;-85
2023/08/24 03:03:21;;;;;;;6.15;3.85;;;;;;;17.64;87.20;101595.41;5053121;28;20032;-85
2023/08/24 03:06:12;;;;;;;6.75;4.53;;;;;;;17.64;85.04;101591.00;5056822;28;20021;-85
2023/08/24 03:08:38;;;;;;;5.63;4.22;;;;;;;17.66;87.46;101575.16;5050791;28;20053;-85
2023/08/24 03:11:04;;;;;;;7.30;4.65;;;;;;;17.66;88.01;101562.00;5047846;28;20029;-85
2023/08/24 03:13:30;;;;;;;7.22;4.50;;;;;;;17.65;88.52;101561.13;5058715;28;20025;-85
2023/08/24 03:15:56;;;;;;;7.82;4.63;;;;;;;17.66;88.54;101547.03;5049450;28;20121;-85
2023/08/24 03:18:21;;;;;;;6.55;4.43;;;;;;;17.64;88.44;101525.22;5040854;28;20535;-85
2023/08/24 03:20:48;;;;;;;7.38;4.65;;;;;;;17.64;89.00;101506.78;5049369;28;20054;-85
2023/08/24 03:23:13;;;;;;;7.20;5.07;;;;;;;17.63;89.02;101497.19;5055062;28;20123;-85
2023/08/24 03:25:41;;;;;;;9.13;5.32;;;;;;;17.60;89.65;101498.19;5051668;28;20465;-85
2023/08/24 03:28:07;;;;;;;6.95;5.25;;;;;;;17.59;89.37;101487.75;5049427;28;20096;-85
2023/08/24 03:30:37;;;;;;;10.27;6.13;;;;;;;17.59;89.89;101485.13;5048570;28;20491;-85
2023/08/24 03:33:04;;;;;;;10.68;6.47;;;;;;;17.56;90.21;101479.97;5051601;28;20021;-85
2023/08/24 03:35:30;;;;;;;8.52;6.30;;;;;;;17.56;90.67;101483.44;5052418;28;20029;-85
2023/08/24 03:37:56;;;;;;;10.02;6.22;;;;;;;17.56;90.95;101470.31;5057307;28;20514;-85
2023/08/24 03:40:21;;;;;;;9.90;6.50;;;;;;;17.58;90.96;101467.63;5050052;28;20021;-85
2023/08/24 03:42:46;;;;;;;9.57;6.40;;;;;;;17.57;91.14;101465.91;5050242;28;20037;-85
2023/08/24 03:45:11;;;;;;;7.68;5.93;;;;;;;17.57;91.79;101471.16;5051285;28;20044;-85
2023/08/24 03:47:37;;;;;;;9.82;6.53;;;;;;;17.59;91.56;101471.97;5053838;28;20029;-85
2023/08/24 03:50:02;;;;;;;9.18;6.22;;;;;;;17.62;91.74;101457.81;5048494;28;20029;-85
2023/08/24 03:52:27;;;;;;;8.95;6.35;;;;;;;17.62;91.37;101460.44;5054745;28;20020;-85
2023/08/24 03:54:53;;;;;;;10.02;6.75;;;;;;;17.63;91.75;101455.09;5052518;28;20032;-85
2023/08/24 03:57:18;;;;;;;9.00;6.47;;;;;;;17.65;92.01;101458.50;5062384;28;20400;-85
2023/08/24 03:59:43;;;;;;;8.43;6.13;;;;;;;17.65;92.10;101466.41;5053101;28;20020;-85
2023/08/24 04:02:08;;;;;;;10.48;6.70;;;;;;;17.68;92.06;101473.28;5060748;28;20090;-85
2023/08/24 04:04:34;;;;;;;8.85;6.75;;;;;;;17.68;92.35;101479.41;5053358;28;20067;-85
2023/08/24 04:07:00;;;;;;;9.43;6.47;;;;;;;17.69;91.93;101475.00;5068799;28;20025;-85
2023/08/24 04:09:25;;;;;;;8.73;7.10;;;;;;;17.68;92.22;101479.41;5049542;28;20591;-85
2023/08/24 04:11:50;;;;;;;12.48;7.75;;;;;;;17.68;92.30;101482.06;5049686;28;20032;-85
2023/08/24 04:14:16;;;;;;;8.60;7.50;;;;;;;17.68;92.30;101489.06;5054246;28;20057;-85
2023/08/24 04:16:41;;;;;;;13.27;7.63;;;;;;;17.67;92.51;101493.50;5053389;28;20029;-85
2023/08/24 04:19:07;;;;;;;9.85;7.22;;;;;;;17.68;92.87;101495.22;5049162;28;20043;-85
2023/08/24 04:21:33;;;;;;;8.75;6.93;;;;;;;17.68;92.58;101484.69;5053059;28;20566;-85
2023/08/24 04:23:59;;;;;;;10.57;7.43;;;;;;;17.68;92.90;101479.41;5063031;28;20032;-85
2023/08/24 04:26:24;;;;;;;12.82;7.18;;;;;;;17.69;92.78;101489.03;5060378;28;20435;-85
2023/08/24 04:28:49;;;;;;;10.60;7.45;;;;;;;17.68;92.35;101484.69;5048763;28;20048;-85
2023/08/24 04:31:15;;;;;;;11.70;7.43;;;;;;;17.67;92.40;101488.22;5050959;28;20094;-85
2023/08/24 04:33:40;;;;;;;9.35;7.28;;;;;;;17.67;92.65;101496.13;5050939;28;20066;-85
2023/08/24 04:36:06;;;;;;;12.80;7.38;;;;;;;17.68;92.64;101495.22;5057449;28;20094;-85
2023/08/24 04:38:31;;;;;;;10.90;7.18;;;;;;;17.68;92.57;101489.94;5060060;28;20040;-85
2023/08/24 04:40:56;;;;;;;10.32;7.32;;;;;;;17.67;92.59;101488.22;5063713;28;20095;-85
2023/08/24 04:43:23;;;;;;;9.88;7.28;;;;;;;17.68;92.76;101495.22;5067476;28;20093;-85
2023/08/24 04:45:53;;;;;;;10.93;7.15;;;;;;;17.66;92.90;101491.78;5054595;28;20131;-85
2023/08/24 04:48:20;;;;;;;11.63;7.88;;;;;;;17.67;92.94;101493.50;5055284;28;20098;-85
2023/08/24 04:50:46;;;;;;;11.10;7.13;;;;;;;17.64;92.93;101483.09;5051225;28;20455;-85
2023/08/24 04:53:14;;;;;;;11.35;7.25;;;;;;;17.64;92.73;101483.09;5049843;28;20020;-85
2023/08/24 04:55:40;;;;;;;11.13;7.43;;;;;;;17.64;92.94;101488.38;5042821;28;20037;-85
2023/08/24 04:58:07;;;;;;;11.52;7.82;;;;;;;17.62;93.05;101478.84;5046501;28;20361;-85
2023/08/24 05:00:33;;;;;;;11.75;7.13;;;;;;;17.62;93.27;101479.69;5051678;28;20484;-85
2023/08/24 05:02:58;;;;;;;12.27;7.55;;;;;;;17.62;93.04;101476.22;5054238;28;20065;-85
2023/08/24 05:05:24;;;;;;;10.10;7.43;;;;;;;17.59;93.37;101471.97;5059778;28;20059;-85
2023/08/24 05:07:49;;;;;;;10.10;7.80;;;;;;;17.60;93.53;101471.00;5053024;28;20135;-85
2023/08/24 05:10:14;;;;;;;11.43;7.80;;;;;;;17.59;93.17;101480.69;5054162;28;20047;-85
2023/08/24 05:12:39;;;;;;;8.82;7.25;;;;;;;17.58;93.34;101476.34;5052711;28;20134;-85
2023/08/24 05:15:06;;;;;;;16.30;7.65;;;;;;;17.59;92.93;101479.84;5056905;28;20078;-85
2023/08/24 05:17:31;;;;;;;10.82;7.18;;;;;;;17.60;93.46;101486.78;5056454;28;20029;-84
2023/08/24 05:19:58;;;;;;;11.93;7.05;;;;;;;17.58;93.05;101486.88;5043438;28;20070;-85
2023/08/24 05:22:23;;;;;;;11.93;8.25;;;;;;;17.58;93.33;101493.94;5050608;28;20525;-85
2023/08/24 05:24:49;;;;;;;11.90;7.78;;;;;;;17.59;93.44;101495.63;5047522;28;20032;-85
2023/08/24 05:27:15;;;;;;;11.38;8.00;;;;;;;17.60;93.12;101486.78;5046539;28;20298;-85
2023/08/24 05:29:40;;;;;;;12.63;8.57;;;;;;;17.62;93.67;101484.94;5051172;28;20468;-85
2023/08/24 05:32:06;;;;;;;10.30;7.95;;;;;;;17.65;93.60;101479.56;5050016;28;20034;-85
2023/08/24 05:34:31;;;;;;;10.73;7.88;;;;;;;17.67;94.00;101482.97;5049767;28;20025;-85
2023/08/24 05:36:57;;;;;;;12.27;8.32;;;;;;;17.70;93.97;101472.31;5052310;28;20036;-85
2023/08/24 05:39:22;;;;;;;11.80;8.35;;;;;;;17.74;94.10;101468.63;5050693;28;20025;-85
2023/08/24 05:41:51;;;;;;;12.80;8.57;;;;;;;17.78;94.11;101464.06;5050000;28;20031;-85
2023/08/24 05:44:17;;;;;;;12.60;9.35;;;;;;;17.81;94.57;101463.06;5046213;28;20028;-85
2023/08/24 05:46:42;;;;;;;12.85;8.80;;;;;;;17.85;94.18;101467.25;5050537;28;20033;-85
2023/08/24 05:49:07;;;;;;;12.90;9.35;;;;;;;17.90;94.11;101465.28;5036397;28;20060;-85
2023/08/24 05:51:32;;;;;;;12.07;8.60;;;;;;;17.92;94.01;101458.16;5037327;28;20364;-85
2023/08/24 05:53:58;;;;;;;13.77;9.57;;;;;;;17.96;94.05;101456.25;5050554;28;20032;-85
2023/08/24 05:56:23;;;;;;;12.10;9.38;;;;;;;18.00;94.22;101445.50;5053094;28;20040;-85
2023/08/24 05:58:48;;;;;;;12.07;9.10;;;;;;;18.03;94.61;101448.00;5052527;28;20025;-85
2023/08/24 06:01:14;;;;;;;13.40;9.45;;;;;;;18.08;94.85;101433.78;5053522;28;20021;-85
2023/08/24 06:03:39;;;;;;;12.43;8.50;;;;;;;18.11;94.03;101428.34;5049813;28;20029;-85
2023/08/24 06:06:04;;;;;;;12.50;9.30;;;;;;;18.13;94.00;101419.47;5051903;28;20036;-85
2023/08/24 06:08:30;;;;;;;13.15;9.45;;;;;;;18.17;93.78;101421.03;5052539;28;20060;-85
2023/08/24 06:10:56;;;;;;;13.38;9.70;;;;;;;18.21;93.64;101419.09;5053460;28;20157;-85
2023/08/24 06:13:21;;;;;;;13.63;9.55;;;;;;;18.24;93.61;101408.41;5052129;28;20025;-85
2023/08/24 06:15:47;;;;;;;13.43;9.75;;;;;;;18.28;93.85;101398.56;5053113;28;20123;-85
2023/08/24 06:18:12;;;;;;;13.80;10.40;;;;;;;18.33;93.67;101397.41;5040485;28;20021;-85
2023/08/24 06:20:37;;;;;;;14.48;10.23;;;;;;;18.35;93.21;101385.00;5053079;28;20017;-85
2023/08/24 06:23:03;;;;;;;14.52;10.10;;;;;;;18.40;93.26;101391.84;5051772;28;20021;-85
2023/08/24 06:25:28;;;;;;;14.38;10.02;;;;;;;18.43;94.17;101381.16;5048252;28;20481;-85
2023/08/24 06:27:53;;;;;;;14.80;10.02;;;;;;;18.49;93.99;101388.72;5050798;28;20033;-85
2023/08/24 06:30:19;;;;;;;12.50;9.50;;;;;;;18.53;93.61;101385.00;5048193;28;20361;-85
2023/08/24 06:32:44;;;;;;;13.80;9.73;;;;;;;18.56;93.44;101403.31;5052111;28;20029;-85
2023/08/24 06:35:14;;;;;;;13.02;10.07;;;;;;;18.63;93.96;101407.31;5051589;28;20032;-85
2023/08/24 06:37:39;;;;;;;13.70;10.55;;;;;;;18.68;93.22;101424.69;5048493;28;20128;-85
2023/08/24 06:40:05;;;;;;;13.73;10.15;;;;;;;18.71;92.14;101421.91;5046976;28;20107;-85
2023/08/24 06:42:30;;;;;;;13.32;10.10;;;;;;;18.76;93.15;101420.72;5049493;28;20115;-85
2023/08/24 06:44:55;;;;;;;14.07;9.60;;;;;;;18.80;92.79;101422.28;5050809;28;20048;-85
2023/08/24 06:47:21;;;;;;;13.70;10.35;;;;;;;18.85;93.15;101411.50;5048512;28;20025;-85
2023/08/24 06:49:46;;;;;;;13.80;10.93;;;;;;;18.90;92.06;101409.47;5043484;28;20089;-85
2023/08/24 06:52:11;;;;;;;12.13;9.48;;;;;;;18.96;92.84;101409.19;5044712;28;20040;-85
2023/08/24 06:54:37;;;;;;;14.25;9.57;;;;;;;19.01;92.29;101410.72;5039918;28;20045;-85
2023/08/24 06:57:03;;;;;;;15.68;10.52;;;;;;;19.05;91.90;101399.94;5044650;28;20507;-85
2023/08/24 06:59:28;;;;;;;12.23;9.38;;;;;;;19.10;91.21;101399.72;5042015;28;20021;-85
2023/08/24 07:01:54;;;;;;;12.50;9.70;;;;;;;19.16;91.56;101403.81;5041882;28;20385;-85
2023/08/24 07:04:19;;;;;;;13.57;10.05;;;;;;;19.22;91.68;101403.47;5039829;28;20107;-85
2023/08/24 07:06:44;;;;;;;12.63;8.93;;;;;;;19.28;90.31;101404.94;5044609;28;20029;-85
2023/08/24 07:09:10;;;;;;;13.55;9.77;;;;;;;19.32;89.65;101398.53;5052560;28;20033;-86
2023/08/24 07:11:35;;;;;;;12.82;9.25;;;;;;;19.38;90.44;101403.50;5050524;28;20068;-85
2023/08/24 07:14:00;;;;;;;13.15;8.52;;;;;;;19.43;90.03;101398.84;5053834;28;20054;-85
2023/08/24 07:16:25;;;;;;;13.75;9.35;;;;;;;19.49;89.84;101384.44;5053887;28;20495;-85
2023/08/24 07:18:51;;;;;;;13.57;9.73;;;;;;;19.56;90.02;101391.06;5055989;28;20488;-85
2023/08/24 07:21:17;;;;;;;11.70;9.20;;;;;;;19.63;90.54;101394.25;5055392;28;20021;-87
2023/08/24 07:23:42;;;;;;;12.45;9.10;;;;;;;19.66;87.94;101388.78;5043783;28;20032;-85
2023/08/24 07:26:08;;;;;;;10.07;7.82;;;;;;;19.70;88.19;101391.19;5054611;28;20029;-87
2023/08/24 07:28:34;;;;;;;11.23;9.57;;;;;;;19.75;87.35;101382.13;5047197;28;20537;-89
2023/08/24 07:31:07;;;;;;;13.80;9.25;;;;;;;19.81;87.68;101377.38;5048609;28;20025;-86
2023/08/24 07:33:32;;;;;;;12.07;9.50;;;;;;;19.85;87.22;101378.91;5052983;28;20029;-86
2023/08/24 07:35:57;;;;;;;10.63;7.93;;;;;;;19.93;86.52;101372.38;5050292;28;20110;-86
2023/08/24 07:38:23;;;;;;;12.30;9.23;;;;;;;20.00;86.23;101376.34;5053578;28;20095;-86
2023/08/24 07:40:48;;;;;;;13.23;8.75;;;;;;;20.08;86.98;101379.41;5053578;28;20017;-86
2023/08/24 07:43:13;;;;;;;10.32;8.57;;;;;;;20.15;85.63;101378.09;5047860;28;20537;-86
2023/08/24 07:45:40;;;;;;;10.35;8.90;;;;;;;20.23;84.86;101382.13;5049733;28;20033;-86
2023/08/24 07:48:06;;;;;;;12.15;8.23;;;;;;;20.30;84.51;101378.19;5049665;28;20059;-85
2023/08/24 07:50:32;;;;;;;11.38;7.72;;;;;;;20.37;83.41;101371.59;5053919;28;20028;-86
2023/08/24 07:52:57;;;;;;;9.57;7.43;;;;;;;20.43;82.22;101373.88;5050987;28;20102;-86
2023/08/24 07:55:22;;;;;;;14.15;8.75;;;;;;;20.51;82.57;101369.91;5053889;28;20025;-85
2023/08/24 07:57:48;;;;;;;9.50;7.95;;;;;;;20.58;83.96;101371.25;5052883;28;20047;-85
2023/08/24 08:00:14;;;;;;;11.85;8.18;;;;;;;20.63;82.66;101359.47;5052036;28;20025;-85
2023/08/24 08:02:40;;;;;;;12.65;8.63;;;;;;;20.69;82.05;101352.94;5051115;28;20040;-86
2023/08/24 08:05:07;;;;;;;13.20;8.95;;;;;;;20.74;81.23;101357.97;5049709;28;20079;-86
2023/08/24 08:07:32;;;;;;;12.27;8.68;;;;;;;20.80;80.75;101362.06;5047477;28;20108;-86
2023/08/24 08:09:58;;;;;;;11.45;8.27;;;;;;;20.86;81.44;101365.19;5051009;28;20151;-86
2023/08/24 08:12:23;;;;;;;12.35;8.50;;;;;;;20.91;80.53;101364.91;5048812;28;20025;-85
2023/08/24 08:14:48;;;;;;;12.65;8.75;;;;;;;20.99;80.73;101360.00;5048902;28;20376;-86
2023/08/24 08:17:14;;;;;;;11.48;8.88;;;;;;;21.06;81.67;101366.59;5048696;28;20031;-86
2023/08/24 08:19:39;;;;;;;13.07;9.15;;;;;;;21.14;81.82;101368.75;5049843;28;20167;-85
2023/08/24 08:22:05;;;;;;;12.48;9.25;;;;;;;21.22;81.82;101363.00;5048672;28;20064;-86
2023/08/24 08:24:30;;;;;;;11.88;9.02;;;;;;;21.31;82.04;101369.50;5050905;28;20594;-86
2023/08/24 08:26:55;;;;;;;12.23;8.52;;;;;;;21.37;81.46;101369.13;5050264;28;20047;-86
2023/08/24 08:29:21;;;;;;;12.02;9.02;;;;;;;21.44;81.35;101359.84;5047641;28;20055;-86
2023/08/24 08:31:46;;;;;;;12.48;8.38;;;;;;;21.54;81.16;101362.75;5048191;28;20037;-86
2023/08/24 08:34:12;;;;;;;14.27;8.25;;;;;;;21.59;78.86;101363.31;5049873;28;20025;-85
2023/08/24 08:36:37;;;;;;;11.43;8.23;;;;;;;21.66;79.50;101358.50;5049392;28;20021;-85
2023/08/24 08:39:04;;;;;;;11.55;8.60;;;;;;;21.71;78.88;101353.75;5054637;28;20029;-86
2023/08/24 08:41:38;;;;;;;10.52;7.90;;;;;;;21.78;79.64;101335.69;5046687;28;20037;-87
2023/08/24 08:44:05;;;;;;;11.15;8.80;;;;;;;21.85;79.36;101331.69;5049135;28;20396;-85
2023/08/24 08:46:32;;;;;;;12.65;9.18;;;;;;;21.93;80.79;101334.66;5049740;28;20040;-85
2023/08/24 08:49:00;;;;;;;11.80;8.88;;;;;;;21.97;78.38;101322.91;5049356;28;20035;-86
2023/08/24 08:51:26;;;;;;;12.88;8.77;;;;;;;22.02;77.52;101316.47;5044877;28;20542;-86
2023/08/24 08:53:51;;;;;;;11.15;8.80;;;;;;;22.09;78.17;101302.72;5052205;28;20016;-85
2023/08/24 08:56:17;;;;;;;11.60;9.38;;;;;;;22.16;78.22;101297.84;5047531;28;20400;-86
2023/08/24 08:58:43;;;;;;;11.38;8.63;;;;;;;22.25;79.68;101286.59;5049461;28;20037;-87
2023/08/24 09:01:09;;;;;;;12.10;8.10;;;;;;;22.29;76.94;101277.50;5050148;28;20032;-86
2023/08/24 09:03:35;;;;;;;9.73;8.35;;;;;;;22.38;78.91;101277.78;5049993;28;20463;-86
2023/08/24 09:06:00;;;;;;;11.95;8.70;;;;;;;22.43;77.95;101268.63;5048983;28;20039;-85
2023/08/24 09:08:26;;;;;;;10.40;8.27;;;;;;;22.51;79.44;101262.78;5050277;28;20024;-86
2023/08/24 09:10:51;;;;;;;10.50;7.72;;;;;;;22.59;76.80;101256.94;5050278;28;20033;-85
2023/08/24 09:13:17;;;;;;;11.38;8.25;;;;;;;22.64;76.74;101257.44;5052947;28;20367;-85
2023/08/24 09:15:42;;;;;;;10.63;8.25;;;;;;;22.70;76.06;101242.94;5050304;28;20120;-86
2023/08/24 09:18:08;;;;;;;8.95;7.50;;;;;;;22.73;75.60;101232.94;5049703;28;20472;-85
2023/08/24 09:20:34;;;;;;;10.68;7.55;;;;;;;22.79;76.12;101230.81;5049105;28;20047;-86
2023/08/24 09:22:59;;;;;;;9.90;7.95;;;;;;;22.85;76.09;101228.56;5046949;28;20377;-86
2023/08/24 09:25:25;;;;;;;11.57;7.88;;;;;;;22.90;76.28;101217.63;5051702;28;20032;-86
2023/08/24 09:27:57;;;;;;;8.80;7.70;;;;;;;22.95;75.67;101215.50;5049956;28;20037;-85
2023/08/24 09:30:23;;;;;;;10.40;8.18;;;;;;;22.99;74.16;101210.81;5048260;28;20045;-85
2023/08/24 09:32:48;;;;;;;9.23;7.38;;;;;;;23.03;73.96;101196.34;5045089;28;20055;-86
2023/08/24 09:35:14;;;;;;;12.15;8.30;;;;;;;23.07;75.01;101195.16;5050857;28;20371;-86
2023/08/24 09:37:40;;;;;;;12.05;7.97;;;;;;;23.14;75.35;101207.03;5046934;28;20185;-86
2023/08/24 09:40:07;;;;;;;11.95;8.23;;;;;;;23.22;74.59;101206.50;5046754;28;20056;-86
2023/08/24 09:42:41;;;;;;;10.77;7.85;;;;;;;23.31;76.28;101219.06;5049179;28;20701;-85
2023/08/24 09:45:09;;;;;;;10.07;7.78;;;;;;;23.38;75.96;101230.09;5051914;28;20071;-85
2023/08/24 09:47:36;;;;;;;10.25;8.32;;;;;;;23.44;75.51;101245.56;5049161;28;20108;-86
2023/08/24 09:50:02;;;;;;;9.73;7.68;;;;;;;23.53;75.34;101264.44;5049721;28;20039;-85
2023/08/24 09:52:32;;;;;;;14.88;7.32;;;;;;;23.58;72.81;101270.25;5056111;28;20445;-87
2023/08/24 09:55:08;;;;;;;9.23;6.93;;;;;;;23.60;71.87;101265.66;5047744;28;20024;-86
2023/08/24 09:57:37;;;;;;;10.60;7.30;;;;;;;23.64;72.39;101260.03;5048298;28;20095;-86
2023/08/24 10:00:10;;;;;;;9.85;7.25;;;;;;;23.69;73.12;101257.03;5044953;28;20079;-85
2023/08/24 10:02:39;;;;;;;8.60;6.85;;;;;;;23.75;72.81;101251.22;5048332;28;20549;-85
2023/08/24 10:05:05;;;;;;;9.07;6.78;;;;;;;23.79;71.81;101255.34;5046739;28;20033;-86
2023/08/24 10:07:31;;;;;;;10.05;7.15;;;;;;;23.82;71.94;101250.78;5044465;28;20051;-86
2023/08/24 10:09:59;;;;;;;8.57;7.10;;;;;;;23.84;72.57;101246.19;5044011;28;20459;-85
2023/08/24 10:12:28;;;;;;;10.10;6.70;;;;;;;23.87;71.80;101264.56;5046011;28;20040;-85
2023/08/24 10:15:06;;;;;;;13.40;7.00;;;;;;;23.90;72.79;101264.34;5047064;28;20033;-86
2023/08/24 10:17:33;;;;;;;9.23;6.75;;;;;;;23.88;71.54;101266.28;5045905;28;20040;-85
2023/08/24 10:20:05;;;;;;;9.52;6.57;;;;;;;23.88;72.30;101269.75;5046975;28;20115;-86
2023/08/24 10:22:31;;;;;;;10.90;6.38;;;;;;;23.88;73.06;101264.44;5045607;28;20388;-85
2023/08/24 10:24:56;;;;;;;6.63;5.85;;;;;;;23.87;70.80;101262.75;5046642;28;20488;-86
2023/08/24 10:27:27;;;;;;;9.73;6.22;;;;;;;23.88;72.02;101260.94;5050020;28;20040;-85
2023/08/24 10:29:52;;;;;;;10.93;6.73;;;;;;;23.88;72.34;101260.94;5048583;28;20056;-86
2023/08/24 10:32:21;;;;;;;8.77;6.60;;;;;;;23.86;74.26;101250.41;5050004;28;20464;-87
2023/08/24 10:34:46;;;;;;;8.55;5.90;;;;;;;23.85;73.48;101246.06;5047352;28;20476;-85
2023/08/24 10:37:12;;;;;;;9.63;6.20;;;;;;;23.84;73.74;101243.53;5049235;28;20035;-85
2023/08/24 10:39:44;;;;;;;9.48;5.63;;;;;;;23.83;75.37;101242.69;5051720;28;20024;-85
2023/08/24 10:42:13;;;;;;;7.38;5.57;;;;;;;23.79;74.64;101244.72;5048198;28;20426;-85
2023/08/24 10:44:43;;;;;;;9.77;5.30;;;;;;;23.76;73.70;101254.75;5050582;28;20032;-85
2023/08/24 10:47:20;;;;;;;6.32;4.53;;;;;;;23.70;73.36;101255.19;5047085;28;20099;-85
2023/08/24 10:49:59;;;;;;;6.20;4.63;;;;;;;23.66;73.76;101262.56;5048544;28;20115;-85
2023/08/24 10:52:35;;;;;;;6.40;4.18;;;;;;;23.62;72.65;101272.56;5048181;28;20028;-85
2023/08/24 10:55:03;;;;;;;6.25;4.10;;;;;;;23.60;71.38;101277.16;5048798;28;20035;-85
2023/08/24 10:57:37;;;;;;;7.18;3.92;;;;;;;23.58;72.14;101281.72;5050284;28;20060;-85
2023/08/24 11:00:08;;;;;;;6.82;4.20;;;;;;;23.56;71.56;101280.16;5048887;28;20078;-85
2023/08/24 11:02:49;;;;;;;6.78;4.43;;;;;;;23.55;73.14;101270.50;5048993;28;20067;-84
2023/08/24 11:05:24;;;;;;;5.75;4.00;;;;;;;23.55;72.19;101281.13;5048291;28;20613;-85
2023/08/24 11:07:52;;;;;;;6.95;4.10;;;;;;;23.55;72.65;101259.88;5049085;28;20039;-85
2023/08/24 11:10:18;;;;;;;6.63;3.95;;;;;;;23.60;72.61;101249.72;5051244;28;20043;-84
2023/08/24 11:13:06;;;;;;;6.00;4.00;;;;;;;23.68;72.05;101228.75;5047077;28;20029;-85
2023/08/24 11:15:38;;;;;;;5.82;3.72;;;;;;;23.76;72.99;101242.31;5057115;28;20711;-85
2023/08/24 11:18:18;;;;;;;6.82;4.13;;;;;;;23.84;71.78;101255.00;5049896;28;20033;-85
2023/08/24 11:20:54;;;;;;;6.82;4.15;;;;;;;23.92;72.60;101265.03;5056287;28;20475;-85